sensor_id;sensor_type;location;lat;lon;timestamp;P1;durP1;ratioP1;P2;durP2;ratioP2
52686;SDS011;38584;49.426;8.396;2023-12-20T00:02:20;17.35;;;8.55;;
52686;SDS011;38584;49.426;8.396;2023-12-20T00:04:46;18.55;;;8.88;;
52686;SDS011;38584;49.426;8.396;2023-12-20T00:07:11;19.70;;;8.02;;
52686;SDS011;38584;49.426;8.396;2023-12-20T00:09:36;18.42;;;9.00;;
52686;SDS011;38584;49.426;8.396;2023-12-20T00:12:02;19.52;;;10.02;;
52686;SDS011;38584;49.426;8.396;2023-12-20T00:14:27;17.58;;;8.85;;
52686;SDS011;38584;49.426;8.396;2023-12-20T00:16:53;18.35;;;8.73;;
52686;SDS011;38584;49.426;8.396;2023-12-20T00:19:18;19.95;;;8.63;;
52686;SDS011;38584;49.426;8.396;2023-12-20T00:21:43;17.13;;;8.75;;
52686;SDS011;38584;49.426;8.396;2023-12-20T00:24:09;18.35;;;9.23;;
52686;SDS011;38584;49.426;8.396;2023-12-20T00:26:34;19.08;;;9.27;;
52686;SDS011;38584;49.426;8.396;2023-12-20T00:28:59;17.38;;;8.32;;
52686;SDS011;38584;49.426;8.396;2023-12-20T00:31:28;19.67;;;8.35;;
52686;SDS011;38584;49.426;8.396;2023-12-20T00:33:53;15.00;;;7.35;;
52686;SDS011;38584;49.426;8.396;2023-12-20T00:36:19;17.10;;;8.20;;
52686;SDS011;38584;49.426;8.396;2023-12-20T00:38:45;17.45;;;7.45;;
52686;SDS011;38584;49.426;8.396;2023-12-20T00:41:10;13.80;;;6.68;;
52686;SDS011;38584;49.426;8.396;2023-12-20T00:43:35;13.88;;;6.50;;
52686;SDS011;38584;49.426;8.396;2023-12-20T00:46:00;15.65;;;7.40;;
52686;SDS011;38584;49.426;8.396;2023-12-20T00:48:29;12.90;;;6.03;;
52686;SDS011;38584;49.426;8.396;2023-12-20T00:51:03;11.85;;;5.65;;
52686;SDS011;38584;49.426;8.396;2023-12-20T00:53:29;11.98;;;5.47;;
52686;SDS011;38584;49.426;8.396;2023-12-20T00:55:54;11.82;;;4.93;;
52686;SDS011;38584;49.426;8.396;2023-12-20T00:58:20;13.38;;;4.97;;
52686;SDS011;38584;49.426;8.396;2023-12-20T01:00:48;10.45;;;4.32;;
52686;SDS011;38584;49.426;8.396;2023-12-20T01:03:13;10.07;;;3.88;;
52686;SDS011;38584;49.426;8.396;2023-12-20T01:05:39;10.93;;;3.83;;
52686;SDS011;38584;49.426;8.396;2023-12-20T01:08:05;10.45;;;4.40;;
52686;SDS011;38584;49.426;8.396;2023-12-20T01:10:30;11.25;;;3.75;;
52686;SDS011;38584;49.426;8.396;2023-12-20T01:12:55;10.30;;;3.83;;
52686;SDS011;38584;49.426;8.396;2023-12-20T01:15:24;9.25;;;3.55;;
52686;SDS011;38584;49.426;8.396;2023-12-20T01:17:52;9.15;;;3.60;;
52686;SDS011;38584;49.426;8.396;2023-12-20T01:20:20;9.57;;;4.22;;
52686;SDS011;38584;49.426;8.396;2023-12-20T01:22:46;10.23;;;4.18;;
52686;SDS011;38584;49.426;8.396;2023-12-20T01:25:11;10.75;;;4.07;;
52686;SDS011;38584;49.426;8.396;2023-12-20T01:27:37;11.45;;;4.35;;
52686;SDS011;38584;49.426;8.396;2023-12-20T01:30:02;11.65;;;4.60;;
52686;SDS011;38584;49.426;8.396;2023-12-20T01:32:28;12.05;;;4.97;;
52686;SDS011;38584;49.426;8.396;2023-12-20T01:34:53;11.30;;;4.60;;
52686;SDS011;38584;49.426;8.396;2023-12-20T01:37:21;11.02;;;4.43;;
52686;SDS011;38584;49.426;8.396;2023-12-20T01:39:48;10.23;;;4.03;;
52686;SDS011;38584;49.426;8.396;2023-12-20T01:42:14;9.80;;;3.63;;
52686;SDS011;38584;49.426;8.396;2023-12-20T01:44:39;11.98;;;4.18;;
52686;SDS011;38584;49.426;8.396;2023-12-20T01:47:04;10.23;;;3.97;;
52686;SDS011;38584;49.426;8.396;2023-12-20T01:49:30;9.30;;;3.45;;
52686;SDS011;38584;49.426;8.396;2023-12-20T01:51:55;8.95;;;3.60;;
52686;SDS011;38584;49.426;8.396;2023-12-20T01:54:21;10.13;;;3.70;;
52686;SDS011;38584;49.426;8.396;2023-12-20T01:56:46;10.77;;;3.80;;
52686;SDS011;38584;49.426;8.396;2023-12-20T01:59:14;10.05;;;3.78;;
52686;SDS011;38584;49.426;8.396;2023-12-20T02:01:39;9.57;;;3.60;;
52686;SDS011;38584;49.426;8.396;2023-12-20T02:04:07;9.75;;;3.20;;
52686;SDS011;38584;49.426;8.396;2023-12-20T02:06:33;9.50;;;3.40;;
52686;SDS011;38584;49.426;8.396;2023-12-20T02:08:58;5.68;;;2.30;;
52686;SDS011;38584;49.426;8.396;2023-12-20T02:11:24;6.60;;;2.30;;
52686;SDS011;38584;49.426;8.396;2023-12-20T02:13:50;6.03;;;2.22;;
52686;SDS011;38584;49.426;8.396;2023-12-20T02:16:19;5.05;;;2.00;;
52686;SDS011;38584;49.426;8.396;2023-12-20T02:18:44;5.78;;;1.70;;
52686;SDS011;38584;49.426;8.396;2023-12-20T02:21:10;8.90;;;1.92;;
52686;SDS011;38584;49.426;8.396;2023-12-20T02:23:37;4.95;;;1.70;;
52686;SDS011;38584;49.426;8.396;2023-12-20T02:26:03;2.90;;;1.40;;
52686;SDS011;38584;49.426;8.396;2023-12-20T02:28:29;4.03;;;1.50;;
52686;SDS011;38584;49.426;8.396;2023-12-20T02:30:55;4.68;;;1.27;;
52686;SDS011;38584;49.426;8.396;2023-12-20T02:33:20;2.63;;;1.40;;
52686;SDS011;38584;49.426;8.396;2023-12-20T02:35:45;2.88;;;1.17;;
52686;SDS011;38584;49.426;8.396;2023-12-20T02:38:17;1.92;;;0.82;;
52686;SDS011;38584;49.426;8.396;2023-12-20T02:40:42;3.50;;;0.90;;
52686;SDS011;38584;49.426;8.396;2023-12-20T02:43:07;1.38;;;0.85;;
52686;SDS011;38584;49.426;8.396;2023-12-20T02:45:33;3.28;;;1.25;;
52686;SDS011;38584;49.426;8.396;2023-12-20T02:47:58;3.03;;;1.30;;
52686;SDS011;38584;49.426;8.396;2023-12-20T02:50:26;3.90;;;1.48;;
52686;SDS011;38584;49.426;8.396;2023-12-20T02:52:51;2.75;;;1.08;;
52686;SDS011;38584;49.426;8.396;2023-12-20T02:55:16;5.55;;;2.25;;
52686;SDS011;38584;49.426;8.396;2023-12-20T02:57:42;3.55;;;1.40;;
52686;SDS011;38584;49.426;8.396;2023-12-20T03:00:10;2.53;;;1.23;;
52686;SDS011;38584;49.426;8.396;2023-12-20T03:02:36;2.03;;;1.15;;
52686;SDS011;38584;49.426;8.396;2023-12-20T03:05:02;1.38;;;1.10;;
52686;SDS011;38584;49.426;8.396;2023-12-20T03:07:27;2.72;;;1.20;;
52686;SDS011;38584;49.426;8.396;2023-12-20T03:09:56;2.55;;;1.17;;
52686;SDS011;38584;49.426;8.396;2023-12-20T03:12:21;3.05;;;1.30;;
52686;SDS011;38584;49.426;8.396;2023-12-20T03:14:47;1.27;;;1.10;;
52686;SDS011;38584;49.426;8.396;2023-12-20T03:17:16;3.17;;;1.50;;
52686;SDS011;38584;49.426;8.396;2023-12-20T03:19:41;2.25;;;1.10;;
52686;SDS011;38584;49.426;8.396;2023-12-20T03:22:10;4.53;;;1.38;;
52686;SDS011;38584;49.426;8.396;2023-12-20T03:24:35;3.05;;;1.40;;
52686;SDS011;38584;49.426;8.396;2023-12-20T03:27:00;3.75;;;1.55;;
52686;SDS011;38584;49.426;8.396;2023-12-20T03:29:32;4.45;;;1.60;;
52686;SDS011;38584;49.426;8.396;2023-12-20T03:31:57;3.38;;;1.40;;
52686;SDS011;38584;49.426;8.396;2023-12-20T03:34:22;4.43;;;1.70;;
52686;SDS011;38584;49.426;8.396;2023-12-20T03:36:48;6.78;;;1.88;;
52686;SDS011;38584;49.426;8.396;2023-12-20T03:39:13;5.13;;;2.08;;
52686;SDS011;38584;49.426;8.396;2023-12-20T03:41:38;6.80;;;2.35;;
52686;SDS011;38584;49.426;8.396;2023-12-20T03:44:04;6.20;;;2.60;;
52686;SDS011;38584;49.426;8.396;2023-12-20T03:46:38;8.18;;;3.05;;
52686;SDS011;38584;49.426;8.396;2023-12-20T03:49:03;8.60;;;2.83;;
52686;SDS011;38584;49.426;8.396;2023-12-20T03:51:29;7.18;;;2.90;;
52686;SDS011;38584;49.426;8.396;2023-12-20T03:53:54;8.30;;;2.45;;
52686;SDS011;38584;49.426;8.396;2023-12-20T03:56:22;5.90;;;2.53;;
52686;SDS011;38584;49.426;8.396;2023-12-20T03:58:48;8.13;;;2.38;;
52686;SDS011;38584;49.426;8.396;2023-12-20T04:01:13;8.32;;;2.53;;
52686;SDS011;38584;49.426;8.396;2023-12-20T04:03:38;4.97;;;2.13;;
52686;SDS011;38584;49.426;8.396;2023-12-20T04:06:05;5.57;;;2.05;;
52686;SDS011;38584;49.426;8.396;2023-12-20T04:08:36;5.65;;;2.00;;
52686;SDS011;38584;49.426;8.396;2023-12-20T04:11:04;9.20;;;2.05;;
52686;SDS011;38584;49.426;8.396;2023-12-20T04:13:33;4.75;;;1.98;;
52686;SDS011;38584;49.426;8.396;2023-12-20T04:15:58;4.35;;;2.00;;
52686;SDS011;38584;49.426;8.396;2023-12-20T04:18:23;5.40;;;1.70;;
52686;SDS011;38584;49.426;8.396;2023-12-20T04:20:49;4.20;;;1.60;;
52686;SDS011;38584;49.426;8.396;2023-12-20T04:23:14;5.60;;;2.00;;
52686;SDS011;38584;49.426;8.396;2023-12-20T04:25:43;4.03;;;1.70;;
52686;SDS011;38584;49.426;8.396;2023-12-20T04:28:08;3.22;;;1.67;;
52686;SDS011;38584;49.426;8.396;2023-12-20T04:30:40;3.30;;;1.67;;
52686;SDS011;38584;49.426;8.396;2023-12-20T04:33:05;5.47;;;1.90;;
52686;SDS011;38584;49.426;8.396;2023-12-20T04:35:30;4.63;;;2.00;;
52686;SDS011;38584;49.426;8.396;2023-12-20T04:37:56;4.57;;;1.90;;
52686;SDS011;38584;49.426;8.396;2023-12-20T04:40:21;4.50;;;2.10;;
52686;SDS011;38584;49.426;8.396;2023-12-20T04:42:46;4.32;;;2.00;;
52686;SDS011;38584;49.426;8.396;2023-12-20T04:45:12;5.25;;;2.13;;
52686;SDS011;38584;49.426;8.396;2023-12-20T04:47:42;5.95;;;2.50;;
52686;SDS011;38584;49.426;8.396;2023-12-20T04:50:11;4.63;;;2.20;;
52686;SDS011;38584;49.426;8.396;2023-12-20T04:52:38;4.60;;;2.08;;
52686;SDS011;38584;49.426;8.396;2023-12-20T04:55:03;6.13;;;2.53;;
52686;SDS011;38584;49.426;8.396;2023-12-20T04:57:29;7.90;;;2.65;;
52686;SDS011;38584;49.426;8.396;2023-12-20T04:59:54;7.05;;;2.70;;
52686;SDS011;38584;49.426;8.396;2023-12-20T05:02:25;7.63;;;2.90;;
52686;SDS011;38584;49.426;8.396;2023-12-20T05:04:51;6.85;;;2.78;;
52686;SDS011;38584;49.426;8.396;2023-12-20T05:07:16;8.20;;;2.90;;
52686;SDS011;38584;49.426;8.396;2023-12-20T05:09:41;7.50;;;2.83;;
52686;SDS011;38584;49.426;8.396;2023-12-20T05:12:07;7.68;;;3.10;;
52686;SDS011;38584;49.426;8.396;2023-12-20T05:14:32;8.77;;;3.50;;
52686;SDS011;38584;49.426;8.396;2023-12-20T05:16:58;7.57;;;3.03;;
52686;SDS011;38584;49.426;8.396;2023-12-20T05:19:23;9.05;;;3.50;;
52686;SDS011;38584;49.426;8.396;2023-12-20T05:21:50;9.63;;;3.53;;
52686;SDS011;38584;49.426;8.396;2023-12-20T05:24:21;7.78;;;3.30;;
52686;SDS011;38584;49.426;8.396;2023-12-20T05:26:52;8.80;;;3.67;;
52686;SDS011;38584;49.426;8.396;2023-12-20T05:29:20;8.70;;;3.78;;
52686;SDS011;38584;49.426;8.396;2023-12-20T05:31:45;9.48;;;4.00;;
52686;SDS011;38584;49.426;8.396;2023-12-20T05:34:10;9.85;;;3.85;;
52686;SDS011;38584;49.426;8.396;2023-12-20T05:36:36;8.82;;;3.70;;
52686;SDS011;38584;49.426;8.396;2023-12-20T05:39:01;8.70;;;3.70;;
52686;SDS011;38584;49.426;8.396;2023-12-20T05:41:28;8.77;;;3.60;;
52686;SDS011;38584;49.426;8.396;2023-12-20T05:43:54;9.43;;;4.15;;
52686;SDS011;38584;49.426;8.396;2023-12-20T05:46:19;10.05;;;4.10;;
52686;SDS011;38584;49.426;8.396;2023-12-20T05:48:44;11.15;;;4.60;;
52686;SDS011;38584;49.426;8.396;2023-12-20T05:51:13;9.10;;;3.97;;
52686;SDS011;38584;49.426;8.396;2023-12-20T05:53:38;9.88;;;4.07;;
52686;SDS011;38584;49.426;8.396;2023-12-20T05:56:06;14.60;;;4.10;;
52686;SDS011;38584;49.426;8.396;2023-12-20T05:58:33;10.35;;;4.15;;
52686;SDS011;38584;49.426;8.396;2023-12-20T06:00:58;9.55;;;4.10;;
52686;SDS011;38584;49.426;8.396;2023-12-20T06:03:24;9.90;;;4.32;;
52686;SDS011;38584;49.426;8.396;2023-12-20T06:05:49;10.15;;;4.20;;
52686;SDS011;38584;49.426;8.396;2023-12-20T06:08:14;10.07;;;4.20;;
52686;SDS011;38584;49.426;8.396;2023-12-20T06:10:39;9.77;;;4.40;;
52686;SDS011;38584;49.426;8.396;2023-12-20T06:13:05;10.50;;;4.85;;
52686;SDS011;38584;49.426;8.396;2023-12-20T06:15:31;11.18;;;5.40;;
52686;SDS011;38584;49.426;8.396;2023-12-20T06:17:57;10.98;;;5.10;;
52686;SDS011;38584;49.426;8.396;2023-12-20T06:20:22;11.20;;;5.47;;
52686;SDS011;38584;49.426;8.396;2023-12-20T06:22:47;11.05;;;5.05;;
52686;SDS011;38584;49.426;8.396;2023-12-20T06:25:16;11.90;;;5.50;;
52686;SDS011;38584;49.426;8.396;2023-12-20T06:27:41;10.93;;;5.20;;
52686;SDS011;38584;49.426;8.396;2023-12-20T06:30:07;12.02;;;6.32;;
52686;SDS011;38584;49.426;8.396;2023-12-20T06:32:34;14.32;;;7.88;;
52686;SDS011;38584;49.426;8.396;2023-12-20T06:34:59;12.60;;;6.85;;
52686;SDS011;38584;49.426;8.396;2023-12-20T06:37:25;13.00;;;6.40;;
52686;SDS011;38584;49.426;8.396;2023-12-20T06:39:50;13.13;;;5.60;;
52686;SDS011;38584;49.426;8.396;2023-12-20T06:42:15;14.07;;;7.15;;
52686;SDS011;38584;49.426;8.396;2023-12-20T06:44:40;12.20;;;5.82;;
52686;SDS011;38584;49.426;8.396;2023-12-20T06:47:06;14.65;;;6.80;;
52686;SDS011;38584;49.426;8.396;2023-12-20T06:49:32;12.55;;;6.68;;
52686;SDS011;38584;49.426;8.396;2023-12-20T06:51:58;13.27;;;6.45;;
52686;SDS011;38584;49.426;8.396;2023-12-20T06:54:26;12.38;;;6.47;;
52686;SDS011;38584;49.426;8.396;2023-12-20T06:56:52;11.35;;;5.65;;
52686;SDS011;38584;49.426;8.396;2023-12-20T06:59:17;14.23;;;5.45;;
52686;SDS011;38584;49.426;8.396;2023-12-20T07:01:45;10.90;;;5.00;;
52686;SDS011;38584;49.426;8.396;2023-12-20T07:04:12;13.65;;;5.95;;
52686;SDS011;38584;49.426;8.396;2023-12-20T07:06:38;11.93;;;5.43;;
52686;SDS011;38584;49.426;8.396;2023-12-20T07:09:06;11.27;;;5.20;;
52686;SDS011;38584;49.426;8.396;2023-12-20T07:11:31;12.70;;;5.00;;
52686;SDS011;38584;49.426;8.396;2023-12-20T07:13:57;10.70;;;5.00;;
52686;SDS011;38584;49.426;8.396;2023-12-20T07:16:22;12.70;;;5.50;;
52686;SDS011;38584;49.426;8.396;2023-12-20T07:18:47;14.02;;;6.20;;
52686;SDS011;38584;49.426;8.396;2023-12-20T07:21:13;13.15;;;5.70;;
52686;SDS011;38584;49.426;8.396;2023-12-20T07:23:38;15.18;;;5.80;;
52686;SDS011;38584;49.426;8.396;2023-12-20T07:26:03;15.95;;;6.20;;
52686;SDS011;38584;49.426;8.396;2023-12-20T07:28:29;15.07;;;6.38;;
52686;SDS011;38584;49.426;8.396;2023-12-20T07:30:57;13.57;;;6.25;;
52686;SDS011;38584;49.426;8.396;2023-12-20T07:33:23;18.75;;;6.40;;
52686;SDS011;38584;49.426;8.396;2023-12-20T07:35:48;13.80;;;6.13;;
52686;SDS011;38584;49.426;8.396;2023-12-20T07:38:13;14.35;;;6.95;;
52686;SDS011;38584;49.426;8.396;2023-12-20T07:40:39;13.85;;;6.15;;
52686;SDS011;38584;49.426;8.396;2023-12-20T07:43:04;16.17;;;6.45;;
52686;SDS011;38584;49.426;8.396;2023-12-20T07:45:29;13.25;;;6.47;;
52686;SDS011;38584;49.426;8.396;2023-12-20T07:47:55;13.98;;;6.20;;
52686;SDS011;38584;49.426;8.396;2023-12-20T07:50:20;15.55;;;6.22;;
52686;SDS011;38584;49.426;8.396;2023-12-20T07:52:45;15.20;;;6.35;;
52686;SDS011;38584;49.426;8.396;2023-12-20T07:55:14;13.88;;;6.20;;
52686;SDS011;38584;49.426;8.396;2023-12-20T07:57:39;13.10;;;5.53;;
52686;SDS011;38584;49.426;8.396;2023-12-20T08:00:04;12.68;;;4.80;;
52686;SDS011;38584;49.426;8.396;2023-12-20T08:02:30;14.00;;;4.72;;
52686;SDS011;38584;49.426;8.396;2023-12-20T08:04:55;12.35;;;5.30;;
52686;SDS011;38584;49.426;8.396;2023-12-20T08:07:21;14.23;;;4.72;;
52686;SDS011;38584;49.426;8.396;2023-12-20T08:09:46;15.88;;;5.00;;
52686;SDS011;38584;49.426;8.396;2023-12-20T08:12:11;11.40;;;4.13;;
52686;SDS011;38584;49.426;8.396;2023-12-20T08:14:37;18.55;;;4.30;;
52686;SDS011;38584;49.426;8.396;2023-12-20T08:17:02;12.15;;;3.88;;
52686;SDS011;38584;49.426;8.396;2023-12-20T08:19:31;19.33;;;3.83;;
52686;SDS011;38584;49.426;8.396;2023-12-20T08:21:56;10.80;;;3.17;;
52686;SDS011;38584;49.426;8.396;2023-12-20T08:24:22;9.88;;;3.00;;
52686;SDS011;38584;49.426;8.396;2023-12-20T08:26:47;14.18;;;4.03;;
52686;SDS011;38584;49.426;8.396;2023-12-20T08:29:15;12.32;;;3.03;;
52686;SDS011;38584;49.426;8.396;2023-12-20T08:31:51;16.33;;;3.50;;
52686;SDS011;38584;49.426;8.396;2023-12-20T08:34:20;18.83;;;6.57;;
52686;SDS011;38584;49.426;8.396;2023-12-20T08:36:45;17.00;;;4.82;;
52686;SDS011;38584;49.426;8.396;2023-12-20T08:39:11;13.05;;;3.25;;
52686;SDS011;38584;49.426;8.396;2023-12-20T08:41:43;10.98;;;2.72;;
52686;SDS011;38584;49.426;8.396;2023-12-20T08:44:14;12.23;;;2.60;;
52686;SDS011;38584;49.426;8.396;2023-12-20T08:46:39;14.35;;;3.83;;
52686;SDS011;38584;49.426;8.396;2023-12-20T08:49:05;13.55;;;3.35;;
52686;SDS011;38584;49.426;8.396;2023-12-20T08:51:33;15.70;;;4.43;;
52686;SDS011;38584;49.426;8.396;2023-12-20T08:53:58;14.27;;;3.20;;
52686;SDS011;38584;49.426;8.396;2023-12-20T08:56:24;11.77;;;3.08;;
52686;SDS011;38584;49.426;8.396;2023-12-20T08:58:49;14.82;;;3.50;;
52686;SDS011;38584;49.426;8.396;2023-12-20T09:01:14;15.30;;;3.25;;
52686;SDS011;38584;49.426;8.396;2023-12-20T09:03:40;13.93;;;3.28;;
52686;SDS011;38584;49.426;8.396;2023-12-20T09:06:05;15.90;;;2.80;;
52686;SDS011;38584;49.426;8.396;2023-12-20T09:08:34;11.38;;;2.70;;
52686;SDS011;38584;49.426;8.396;2023-12-20T09:10:59;12.70;;;2.88;;
52686;SDS011;38584;49.426;8.396;2023-12-20T09:13:28;10.90;;;2.90;;
52686;SDS011;38584;49.426;8.396;2023-12-20T09:15:54;10.77;;;2.15;;
52686;SDS011;38584;49.426;8.396;2023-12-20T09:18:20;12.48;;;2.60;;
52686;SDS011;38584;49.426;8.396;2023-12-20T09:20:46;13.25;;;2.45;;
52686;SDS011;38584;49.426;8.396;2023-12-20T09:23:11;12.25;;;2.50;;
52686;SDS011;38584;49.426;8.396;2023-12-20T09:25:36;12.65;;;2.65;;
52686;SDS011;38584;49.426;8.396;2023-12-20T09:28:04;11.82;;;2.75;;
52686;SDS011;38584;49.426;8.396;2023-12-20T09:30:33;11.15;;;2.90;;
52686;SDS011;38584;49.426;8.396;2023-12-20T09:33:00;16.00;;;2.72;;
52686;SDS011;38584;49.426;8.396;2023-12-20T09:35:25;15.43;;;2.65;;
52686;SDS011;38584;49.426;8.396;2023-12-20T09:37:51;14.77;;;2.80;;
52686;SDS011;38584;49.426;8.396;2023-12-20T09:40:17;13.23;;;2.92;;
52686;SDS011;38584;49.426;8.396;2023-12-20T09:42:53;17.77;;;2.85;;
52686;SDS011;38584;49.426;8.396;2023-12-20T09:45:22;13.02;;;2.85;;
52686;SDS011;38584;49.426;8.396;2023-12-20T09:47:48;14.88;;;2.95;;
52686;SDS011;38584;49.426;8.396;2023-12-20T09:50:15;15.25;;;2.45;;
52686;SDS011;38584;49.426;8.396;2023-12-20T09:52:41;13.88;;;2.60;;
52686;SDS011;38584;49.426;8.396;2023-12-20T09:55:11;9.68;;;2.25;;
52686;SDS011;38584;49.426;8.396;2023-12-20T09:57:37;12.77;;;2.25;;
52686;SDS011;38584;49.426;8.396;2023-12-20T10:00:02;13.00;;;2.30;;
52686;SDS011;38584;49.426;8.396;2023-12-20T10:02:28;12.60;;;2.28;;
52686;SDS011;38584;49.426;8.396;2023-12-20T10:04:57;10.57;;;2.33;;
52686;SDS011;38584;49.426;8.396;2023-12-20T10:07:22;13.20;;;2.63;;
52686;SDS011;38584;49.426;8.396;2023-12-20T10:09:48;10.48;;;2.63;;
52686;SDS011;38584;49.426;8.396;2023-12-20T10:12:13;12.73;;;2.40;;
52686;SDS011;38584;49.426;8.396;2023-12-20T10:14:39;11.52;;;2.60;;
52686;SDS011;38584;49.426;8.396;2023-12-20T10:17:07;14.57;;;2.40;;
52686;SDS011;38584;49.426;8.396;2023-12-20T10:19:33;15.55;;;2.85;;
52686;SDS011;38584;49.426;8.396;2023-12-20T10:22:07;15.80;;;3.38;;
52686;SDS011;38584;49.426;8.396;2023-12-20T10:24:33;18.55;;;3.80;;
52686;SDS011;38584;49.426;8.396;2023-12-20T10:27:01;14.25;;;2.90;;
52686;SDS011;38584;49.426;8.396;2023-12-20T10:29:31;15.23;;;3.17;;
52686;SDS011;38584;49.426;8.396;2023-12-20T10:31:57;12.88;;;3.03;;
52686;SDS011;38584;49.426;8.396;2023-12-20T10:34:25;15.40;;;2.70;;
52686;SDS011;38584;49.426;8.396;2023-12-20T10:36:51;18.70;;;4.35;;
52686;SDS011;38584;49.426;8.396;2023-12-20T10:39:16;11.50;;;3.05;;
52686;SDS011;38584;49.426;8.396;2023-12-20T10:41:42;13.32;;;3.22;;
52686;SDS011;38584;49.426;8.396;2023-12-20T10:44:08;17.67;;;3.45;;
52686;SDS011;38584;49.426;8.396;2023-12-20T10:46:35;14.95;;;3.45;;
52686;SDS011;38584;49.426;8.396;2023-12-20T10:49:02;15.35;;;3.35;;
52686;SDS011;38584;49.426;8.396;2023-12-20T10:51:27;15.63;;;3.42;;
52686;SDS011;38584;49.426;8.396;2023-12-20T10:53:57;13.82;;;3.05;;
52686;SDS011;38584;49.426;8.396;2023-12-20T10:56:23;16.98;;;3.00;;
52686;SDS011;38584;49.426;8.396;2023-12-20T10:58:48;19.30;;;3.35;;
52686;SDS011;38584;49.426;8.396;2023-12-20T11:01:14;17.75;;;4.13;;
52686;SDS011;38584;49.426;8.396;2023-12-20T11:03:43;15.80;;;3.72;;
52686;SDS011;38584;49.426;8.396;2023-12-20T11:09:19;15.85;;;3.92;;
52686;SDS011;38584;49.426;8.396;2023-12-20T11:14:20;15.07;;;3.58;;
52686;SDS011;38584;49.426;8.396;2023-12-20T11:17:04;15.73;;;3.10;;
52686;SDS011;38584;49.426;8.396;2023-12-20T11:22:00;18.48;;;5.10;;
52686;SDS011;38584;49.426;8.396;2023-12-20T11:24:26;15.68;;;4.53;;
52686;SDS011;38584;49.426;8.396;2023-12-20T11:26:53;19.85;;;6.10;;
52686;SDS011;38584;49.426;8.396;2023-12-20T11:29:30;18.65;;;4.13;;
52686;SDS011;38584;49.426;8.396;2023-12-20T11:32:27;25.40;;;6.85;;
52686;SDS011;38584;49.426;8.396;2023-12-20T11:34:56;20.33;;;5.90;;
52686;SDS011;38584;49.426;8.396;2023-12-20T11:37:28;15.18;;;6.35;;
52686;SDS011;38584;49.426;8.396;2023-12-20T11:40:02;12.55;;;3.70;;
52686;SDS011;38584;49.426;8.396;2023-12-20T11:42:32;15.98;;;3.03;;
52686;SDS011;38584;49.426;8.396;2023-12-20T11:45:14;16.98;;;2.88;;
52686;SDS011;38584;49.426;8.396;2023-12-20T11:47:44;18.58;;;5.93;;
52686;SDS011;38584;49.426;8.396;2023-12-20T11:50:11;18.25;;;4.93;;
52686;SDS011;38584;49.426;8.396;2023-12-20T11:52:36;17.02;;;3.58;;
52686;SDS011;38584;49.426;8.396;2023-12-20T11:55:02;19.70;;;5.03;;
52686;SDS011;38584;49.426;8.396;2023-12-20T11:57:35;16.83;;;4.78;;
52686;SDS011;38584;49.426;8.396;2023-12-20T12:00:03;15.70;;;3.22;;
52686;SDS011;38584;49.426;8.396;2023-12-20T12:02:28;12.02;;;2.90;;
52686;SDS011;38584;49.426;8.396;2023-12-20T12:04:59;20.27;;;5.40;;
52686;SDS011;38584;49.426;8.396;2023-12-20T12:07:25;22.33;;;8.65;;
52686;SDS011;38584;49.426;8.396;2023-12-20T12:09:53;19.30;;;4.18;;
52686;SDS011;38584;49.426;8.396;2023-12-20T12:12:19;16.45;;;3.50;;
52686;SDS011;38584;49.426;8.396;2023-12-20T12:14:44;12.82;;;2.90;;
52686;SDS011;38584;49.426;8.396;2023-12-20T12:17:11;17.77;;;3.72;;
52686;SDS011;38584;49.426;8.396;2023-12-20T12:19:37;11.95;;;2.70;;
52686;SDS011;38584;49.426;8.396;2023-12-20T12:22:13;13.98;;;2.80;;
52686;SDS011;38584;49.426;8.396;2023-12-20T12:24:40;15.93;;;2.83;;
52686;SDS011;38584;49.426;8.396;2023-12-20T12:27:06;13.85;;;3.63;;
52686;SDS011;38584;49.426;8.396;2023-12-20T12:29:32;11.60;;;2.50;;
52686;SDS011;38584;49.426;8.396;2023-12-20T12:31:58;14.00;;;3.78;;
52686;SDS011;38584;49.426;8.396;2023-12-20T12:34:24;20.55;;;5.50;;
52686;SDS011;38584;49.426;8.396;2023-12-20T12:36:49;12.80;;;2.75;;
52686;SDS011;38584;49.426;8.396;2023-12-20T12:39:15;15.70;;;3.50;;
52686;SDS011;38584;49.426;8.396;2023-12-20T12:41:40;14.85;;;3.03;;
52686;SDS011;38584;49.426;8.396;2023-12-20T12:44:09;15.13;;;3.75;;
52686;SDS011;38584;49.426;8.396;2023-12-20T12:46:37;13.13;;;3.53;;
52686;SDS011;38584;49.426;8.396;2023-12-20T12:49:03;11.65;;;3.05;;
52686;SDS011;38584;49.426;8.396;2023-12-20T12:51:30;14.05;;;3.10;;
52686;SDS011;38584;49.426;8.396;2023-12-20T12:53:56;15.88;;;3.05;;
52686;SDS011;38584;49.426;8.396;2023-12-20T12:56:22;10.77;;;2.67;;
52686;SDS011;38584;49.426;8.396;2023-12-20T12:58:47;14.25;;;3.70;;
52686;SDS011;38584;49.426;8.396;2023-12-20T13:01:12;13.93;;;2.90;;
52686;SDS011;38584;49.426;8.396;2023-12-20T13:03:39;10.85;;;2.92;;
52686;SDS011;38584;49.426;8.396;2023-12-20T13:06:25;14.90;;;3.42;;
52686;SDS011;38584;49.426;8.396;2023-12-20T13:08:56;13.80;;;2.80;;
52686;SDS011;38584;49.426;8.396;2023-12-20T13:11:27;15.02;;;3.70;;
52686;SDS011;38584;49.426;8.396;2023-12-20T13:14:05;15.02;;;3.67;;
52686;SDS011;38584;49.426;8.396;2023-12-20T13:16:35;15.13;;;3.00;;
52686;SDS011;38584;49.426;8.396;2023-12-20T13:19:01;16.08;;;2.88;;
52686;SDS011;38584;49.426;8.396;2023-12-20T13:21:26;12.52;;;2.63;;
52686;SDS011;38584;49.426;8.396;2023-12-20T13:23:51;17.73;;;3.28;;
52686;SDS011;38584;49.426;8.396;2023-12-20T13:26:21;13.40;;;2.70;;
52686;SDS011;38584;49.426;8.396;2023-12-20T13:28:46;14.73;;;2.90;;
52686;SDS011;38584;49.426;8.396;2023-12-20T13:31:12;12.27;;;2.60;;
52686;SDS011;38584;49.426;8.396;2023-12-20T13:33:40;15.50;;;3.33;;
52686;SDS011;38584;49.426;8.396;2023-12-20T13:36:05;12.15;;;2.78;;
52686;SDS011;38584;49.426;8.396;2023-12-20T13:38:31;7.43;;;2.00;;
52686;SDS011;38584;49.426;8.396;2023-12-20T13:40:56;12.48;;;2.15;;
52686;SDS011;38584;49.426;8.396;2023-12-20T13:43:26;8.98;;;2.20;;
52686;SDS011;38584;49.426;8.396;2023-12-20T13:45:57;9.38;;;1.92;;
52686;SDS011;38584;49.426;8.396;2023-12-20T13:48:23;8.90;;;2.10;;
52686;SDS011;38584;49.426;8.396;2023-12-20T13:50:48;13.95;;;2.97;;
52686;SDS011;38584;49.426;8.396;2023-12-20T13:53:13;13.13;;;2.53;;
52686;SDS011;38584;49.426;8.396;2023-12-20T13:55:39;13.70;;;2.90;;
52686;SDS011;38584;49.426;8.396;2023-12-20T13:58:08;11.98;;;2.53;;
52686;SDS011;38584;49.426;8.396;2023-12-20T14:00:35;10.93;;;3.00;;
52686;SDS011;38584;49.426;8.396;2023-12-20T14:03:01;9.25;;;2.50;;
52686;SDS011;38584;49.426;8.396;2023-12-20T14:05:30;12.98;;;2.63;;
52686;SDS011;38584;49.426;8.396;2023-12-20T14:07:56;11.25;;;2.30;;
52686;SDS011;38584;49.426;8.396;2023-12-20T14:10:25;14.85;;;3.13;;
52686;SDS011;38584;49.426;8.396;2023-12-20T14:12:54;14.23;;;3.08;;
52686;SDS011;38584;49.426;8.396;2023-12-20T14:15:19;12.90;;;2.30;;
52686;SDS011;38584;49.426;8.396;2023-12-20T14:17:48;10.85;;;2.58;;
52686;SDS011;38584;49.426;8.396;2023-12-20T14:20:13;10.07;;;2.35;;
52686;SDS011;38584;49.426;8.396;2023-12-20T14:22:39;10.75;;;2.50;;
52686;SDS011;38584;49.426;8.396;2023-12-20T14:25:17;14.50;;;2.80;;
52686;SDS011;38584;49.426;8.396;2023-12-20T14:27:43;10.13;;;2.13;;
52686;SDS011;38584;49.426;8.396;2023-12-20T14:30:09;12.98;;;2.20;;
52686;SDS011;38584;49.426;8.396;2023-12-20T14:32:37;10.75;;;2.35;;
52686;SDS011;38584;49.426;8.396;2023-12-20T14:35:04;15.95;;;2.50;;
52686;SDS011;38584;49.426;8.396;2023-12-20T14:37:30;12.95;;;2.70;;
52686;SDS011;38584;49.426;8.396;2023-12-20T14:39:56;15.80;;;2.38;;
52686;SDS011;38584;49.426;8.396;2023-12-20T14:42:21;11.32;;;2.38;;
52686;SDS011;38584;49.426;8.396;2023-12-20T14:44:47;11.88;;;2.80;;